Time;durP1;ratioP1;P1;durP2;ratioP2;P2;SDS_P1;SDS_P2;PMS_P1;PMS_P2;Temp;Humidity;BMP_temperature;BMP_pressure;BME280_temperature;BME280_humidity;BME280_pressure;Samples;Min_cycle;Max_cycle;Signal;HPM_P1;HPM_P2
2021/09/22 00:01:49;;;;;;;13.00;9.07;;;12.70;99.90;;;;;;5071330;28;20046;-49
2021/09/22 00:04:14;;;;;;;14.13;8.40;;;12.70;99.90;;;;;;5071332;28;20036;-50
2021/09/22 00:06:40;;;;;;;11.73;7.63;;;12.70;99.90;;;;;;5069219;28;20050;-48
2021/09/22 00:09:05;;;;;;;10.98;8.57;;;12.70;99.90;;;;;;5069753;28;20025;-48
2021/09/22 00:11:31;;;;;;;12.95;8.38;;;12.70;99.90;;;;;;5058243;28;20100;-50
2021/09/22 00:13:56;;;;;;;14.45;8.63;;;12.60;99.90;;;;;;5059650;28;20475;-47
2021/09/22 00:16:22;;;;;;;14.43;8.82;;;12.60;99.90;;;;;;5070481;28;20047;-47
2021/09/22 00:18:47;;;;;;;14.38;9.40;;;12.60;99.90;;;;;;5070531;28;20032;-48
2021/09/22 00:21:13;;;;;;;13.75;9.13;;;12.50;99.90;;;;;;5070724;28;20094;-50
2021/09/22 00:23:39;;;;;;;19.25;9.27;;;12.40;99.90;;;;;;5070836;28;20051;-48
2021/09/22 00:26:04;;;;;;;12.30;8.05;;;12.40;99.90;;;;;;5070642;28;20118;-47
2021/09/22 00:28:31;;;;;;;14.38;8.73;;;12.40;99.90;;;;;;5070052;28;20394;-48
2021/09/22 00:30:57;;;;;;;12.52;8.70;;;12.40;99.90;;;;;;5070696;28;20024;-47
2021/09/22 00:33:23;;;;;;;13.65;8.75;;;12.30;99.90;;;;;;5071018;28;20367;-47
2021/09/22 00:35:48;;;;;;;12.60;9.45;;;12.30;99.90;;;;;;5071055;28;20025;-47
2021/09/22 00:38:14;;;;;;;18.15;9.73;;;12.30;99.90;;;;;;5070128;28;20036;-50
2021/09/22 00:40:39;;;;;;;14.32;8.98;;;12.20;99.90;;;;;;5070502;28;20031;-47
2021/09/22 00:43:05;;;;;;;17.88;9.68;;;12.20;99.90;;;;;;5054089;28;20013;-50
2021/09/22 00:45:31;;;;;;;15.15;9.85;;;12.20;99.90;;;;;;5065062;28;20394;-47
2021/09/22 00:47:56;;;;;;;18.70;9.93;;;12.10;99.90;;;;;;5069702;28;20028;-47
2021/09/22 00:50:23;;;;;;;16.00;10.13;;;12.10;99.90;;;;;;5070614;28;20064;-47
2021/09/22 00:52:49;;;;;;;15.25;10.77;;;12.10;99.90;;;;;;5070251;28;20024;-50
2021/09/22 00:55:14;;;;;;;16.60;9.75;;;12.10;99.90;;;;;;5068961;28;20082;-51
2021/09/22 00:57:51;;;;;;;13.75;9.20;;;12.20;99.90;;;;;;5069268;28;20037;-50
2021/09/22 01:00:20;;;;;;;20.83;10.63;;;12.20;99.90;;;;;;5070319;28;20094;-51
2021/09/22 01:02:48;;;;;;;16.17;9.82;;;12.20;99.90;;;;;;5069300;28;20151;-50
2021/09/22 01:05:34;;;;;;;18.13;10.20;;;12.20;99.90;;;;;;5070259;28;20024;-51
2021/09/22 01:08:00;;;;;;;16.40;10.48;;;12.20;99.90;;;;;;5069152;28;20071;-51
2021/09/22 01:10:26;;;;;;;17.67;10.73;;;12.20;99.90;;;;;;5069933;28;20386;-51
2021/09/22 01:12:52;;;;;;;18.77;11.25;;;12.20;99.90;;;;;;5055433;28;20039;-51
2021/09/22 01:15:36;;;;;;;19.80;11.20;;;12.20;99.90;;;;;;5062952;28;20507;-52
2021/09/22 01:18:02;;;;;;;18.23;9.50;;;12.20;99.90;;;;;;5069005;28;20028;-50
2021/09/22 01:20:31;;;;;;;14.40;10.00;;;12.20;99.90;;;;;;5068339;28;20024;-51
2021/09/22 01:22:59;;;;;;;18.23;10.10;;;12.20;99.90;;;;;;5069351;28;20398;-50
2021/09/22 01:25:25;;;;;;;19.85;11.88;;;12.20;99.90;;;;;;5069551;28;20030;-49
2021/09/22 01:27:57;;;;;;;15.80;10.88;;;12.30;99.90;;;;;;5068597;28;20033;-50
2021/09/22 01:30:24;;;;;;;21.42;12.25;;;12.20;99.90;;;;;;5069588;28;20020;-51
2021/09/22 01:32:55;;;;;;;19.20;12.25;;;12.30;99.90;;;;;;5069474;28;20134;-51
2021/09/22 01:35:22;;;;;;;17.10;11.77;;;12.20;99.90;;;;;;5069282;28;20086;-51
2021/09/22 01:37:48;;;;;;;14.50;10.02;;;12.30;99.90;;;;;;5068425;28;20050;-50
2021/09/22 01:40:15;;;;;;;19.90;11.23;;;12.30;99.90;;;;;;5067836;28;20586;-51
2021/09/22 01:42:41;;;;;;;19.13;11.85;;;12.20;99.90;;;;;;5056769;28;20013;-49
2021/09/22 01:45:12;;;;;;;22.27;13.35;;;12.20;99.90;;;;;;5059411;28;20086;-49
2021/09/22 01:47:37;;;;;;;18.25;12.73;;;12.20;99.90;;;;;;5068803;28;20035;-50
2021/09/22 01:50:09;;;;;;;18.10;12.02;;;12.20;99.90;;;;;;5069150;28;20111;-50
2021/09/22 01:52:35;;;;;;;29.17;15.38;;;12.20;99.90;;;;;;5067596;28;20078;-50
2021/09/22 01:55:02;;;;;;;25.65;13.98;;;12.10;99.90;;;;;;5067635;28;20482;-49
2021/09/22 01:57:28;;;;;;;21.98;13.48;;;12.10;99.90;;;;;;5066523;28;20025;-50
2021/09/22 01:59:53;;;;;;;20.98;13.35;;;12.10;99.90;;;;;;5069329;28;20021;-50
2021/09/22 02:02:19;;;;;;;23.83;13.98;;;12.20;99.90;;;;;;5067782;28;20478;-50
2021/09/22 02:04:44;;;;;;;23.17;14.13;;;12.20;99.90;;;;;;5069517;28;20032;-50
2021/09/22 02:07:10;;;;;;;20.42;13.27;;;12.10;99.90;;;;;;5068415;28;20498;-50
2021/09/22 02:09:36;;;;;;;22.85;13.85;;;12.10;99.90;;;;;;5069104;28;20433;-48
2021/09/22 02:12:02;;;;;;;24.20;14.38;;;12.10;99.90;;;;;;5054857;28;20029;-49
2021/09/22 02:14:27;;;;;;;20.30;12.80;;;12.20;99.90;;;;;;5060171;28;20110;-49
2021/09/22 02:16:53;;;;;;;25.63;14.50;;;12.10;99.90;;;;;;5067788;28;20028;-51
2021/09/22 02:19:19;;;;;;;21.27;13.70;;;12.10;99.90;;;;;;5068648;28;20210;-50
2021/09/22 02:21:45;;;;;;;24.15;13.90;;;12.10;99.90;;;;;;5068621;28;20028;-49
2021/09/22 02:24:11;;;;;;;30.48;16.02;;;12.10;99.90;;;;;;5068669;28;20036;-49
2021/09/22 02:26:36;;;;;;;24.15;14.45;;;12.10;99.90;;;;;;5067643;28;20052;-48
2021/09/22 02:29:02;;;;;;;22.42;13.30;;;12.00;99.90;;;;;;5067608;28;20070;-48
2021/09/22 02:31:27;;;;;;;25.33;14.85;;;12.10;99.90;;;;;;5068520;28;20394;-47
2021/09/22 02:33:53;;;;;;;27.10;14.13;;;12.10;99.90;;;;;;5068233;28;20267;-50
2021/09/22 02:36:18;;;;;;;24.10;12.68;;;12.10;99.90;;;;;;5068259;28;20548;-51
2021/09/22 02:38:44;;;;;;;31.48;15.40;;;12.10;99.90;;;;;;5068247;28;20029;-49
2021/09/22 02:41:09;;;;;;;21.67;13.07;;;12.10;99.90;;;;;;5066467;28;20390;-47
2021/09/22 02:43:35;;;;;;;25.23;14.73;;;12.10;99.90;;;;;;5051938;28;20466;-49
2021/09/22 02:46:00;;;;;;;27.02;14.23;;;12.10;99.90;;;;;;5067056;28;20025;-49
2021/09/22 02:48:26;;;;;;;24.83;13.90;;;12.10;99.90;;;;;;5067732;28;20047;-51
2021/09/22 02:50:51;;;;;;;29.38;15.38;;;12.10;99.90;;;;;;5068492;28;20028;-51
2021/09/22 02:53:18;;;;;;;26.23;14.15;;;12.10;99.90;;;;;;5068594;28;20033;-48
2021/09/22 02:55:44;;;;;;;20.60;12.63;;;12.10;99.90;;;;;;5068531;28;20032;-47
2021/09/22 02:58:09;;;;;;;25.25;15.50;;;12.00;99.90;;;;;;5067544;28;20043;-50
2021/09/22 03:00:35;;;;;;;22.73;13.90;;;12.00;99.90;;;;;;5068399;28;20086;-48
2021/09/22 03:03:01;;;;;;;29.05;14.98;;;12.00;99.90;;;;;;5068082;28;20020;-49
2021/09/22 03:05:26;;;;;;;24.63;14.52;;;12.00;99.90;;;;;;5068086;28;20030;-49
2021/09/22 03:07:51;;;;;;;20.60;13.55;;;12.00;99.90;;;;;;5067365;28;20370;-50
2021/09/22 03:10:19;;;;;;;31.35;15.50;;;11.90;99.90;;;;;;5068217;28;20430;-51
2021/09/22 03:12:45;;;;;;;32.67;14.75;;;11.90;99.90;;;;;;5057100;28;20108;-51
2021/09/22 03:15:10;;;;;;;26.77;15.27;;;11.90;99.90;;;;;;5060425;28;20112;-50
2021/09/22 03:17:36;;;;;;;25.08;15.75;;;11.90;99.90;;;;;;5067416;28;20115;-50
2021/09/22 03:20:02;;;;;;;30.10;16.45;;;11.90;99.90;;;;;;5067904;28;20083;-50
2021/09/22 03:22:28;;;;;;;27.30;15.13;;;11.90;99.90;;;;;;5068076;28;20031;-48
2021/09/22 03:24:53;;;;;;;29.00;15.70;;;11.90;99.90;;;;;;5067917;28;20406;-51
2021/09/22 03:27:19;;;;;;;27.80;16.35;;;11.90;99.90;;;;;;5070310;28;20064;-50
2021/09/22 03:29:44;;;;;;;29.75;16.23;;;11.90;99.90;;;;;;5071759;28;20025;-48
2021/09/22 03:32:10;;;;;;;27.23;16.52;;;11.80;99.90;;;;;;5071539;28;20032;-48
2021/09/22 03:34:35;;;;;;;24.08;13.95;;;11.80;99.90;;;;;;5071650;28;20036;-50
2021/09/22 03:37:01;;;;;;;29.85;16.17;;;11.80;99.90;;;;;;5069596;28;20033;-49
2021/09/22 03:39:26;;;;;;;30.77;16.02;;;11.80;99.90;;;;;;5071576;28;20104;-50
2021/09/22 03:41:52;;;;;;;31.38;17.25;;;11.80;99.90;;;;;;5062314;28;20056;-50
2021/09/22 03:44:17;;;;;;;38.70;18.23;;;11.80;99.90;;;;;;5062033;28;20016;-50
2021/09/22 03:46:43;;;;;;;28.33;16.88;;;11.80;99.90;;;;;;5070942;28;20032;-50
2021/09/22 03:49:08;;;;;;;30.50;16.65;;;11.80;99.90;;;;;;5071577;28;20025;-50
2021/09/22 03:51:34;;;;;;;31.40;18.63;;;11.70;99.90;;;;;;5071601;28;20028;-51
2021/09/22 03:53:59;;;;;;;33.55;16.73;;;11.70;99.90;;;;;;5071433;28;20154;-50
2021/09/22 03:56:25;;;;;;;30.08;17.55;;;11.70;99.90;;;;;;5071020;28;20036;-49
2021/09/22 03:58:50;;;;;;;28.27;17.15;;;11.70;99.90;;;;;;5070509;28;20450;-47
2021/09/22 04:01:16;;;;;;;32.95;19.42;;;11.70;99.90;;;;;;5071081;28;20033;-47
2021/09/22 04:03:42;;;;;;;35.55;17.83;;;11.60;99.90;;;;;;5071089;28;20028;-50
2021/09/22 04:06:08;;;;;;;37.35;20.48;;;11.60;99.90;;;;;;5070814;28;20028;-48
2021/09/22 04:08:33;;;;;;;31.30;19.50;;;11.60;99.90;;;;;;5070572;28;20024;-49
2021/09/22 04:10:59;;;;;;;36.97;19.25;;;11.60;99.90;;;;;;5071155;28;20486;-50
2021/09/22 04:13:24;;;;;;;38.28;20.95;;;11.60;99.90;;;;;;5055444;28;20116;-48
2021/09/22 04:15:49;;;;;;;37.65;19.52;;;11.60;99.90;;;;;;5051018;28;20212;-49
2021/09/22 04:18:15;;;;;;;41.70;20.10;;;11.60;99.90;;;;;;5050330;28;20044;-48
2021/09/22 04:20:41;;;;;;;33.55;18.83;;;11.60;99.90;;;;;;5050674;28;20478;-48
2021/09/22 04:23:06;;;;;;;39.83;20.05;;;11.60;99.90;;;;;;5050785;28;20422;-47
2021/09/22 04:25:32;;;;;;;36.85;21.45;;;11.50;99.90;;;;;;5051345;28;20028;-50
2021/09/22 04:27:57;;;;;;;36.45;21.95;;;11.50;99.90;;;;;;5048726;28;20028;-48
2021/09/22 04:30:23;;;;;;;36.78;19.83;;;11.50;99.90;;;;;;5049249;28;20474;-47
2021/09/22 04:32:48;;;;;;;35.88;21.27;;;11.50;99.90;;;;;;5050570;28;20460;-48
2021/09/22 04:35:14;;;;;;;43.00;23.80;;;11.50;99.90;;;;;;5050484;28;20043;-47
2021/09/22 04:37:40;;;;;;;46.65;22.67;;;11.50;99.90;;;;;;5048697;28;20122;-48
2021/09/22 04:40:10;;;;;;;44.65;21.92;;;11.50;99.90;;;;;;5049106;28;20049;-48
2021/09/22 04:42:36;;;;;;;45.50;25.35;;;11.50;99.90;;;;;;5054062;28;20028;-48
2021/09/22 04:45:04;;;;;;;36.13;21.83;;;11.50;99.90;;;;;;5061812;28;20186;-47
2021/09/22 04:47:30;;;;;;;39.53;21.13;;;11.40;99.90;;;;;;5069410;28;20039;-47
2021/09/22 04:49:57;;;;;;;45.38;23.40;;;11.40;99.90;;;;;;5057209;28;20029;-48
2021/09/22 04:52:23;;;;;;;35.75;20.52;;;11.50;99.90;;;;;;5042560;28;20032;-48
2021/09/22 04:54:48;;;;;;;41.00;22.90;;;11.40;99.90;;;;;;5035304;28;20037;-48
2021/09/22 04:57:14;;;;;;;35.60;19.52;;;11.40;99.90;;;;;;5037399;28;20055;-49
2021/09/22 04:59:39;;;;;;;36.90;22.38;;;11.50;99.90;;;;;;5029995;28;20041;-47
2021/09/22 05:02:05;;;;;;;40.15;23.23;;;11.50;99.90;;;;;;5030020;28;20333;-47
2021/09/22 05:04:30;;;;;;;47.08;24.50;;;11.50;99.90;;;;;;5030090;28;20152;-49
2021/09/22 05:06:55;;;;;;;44.22;24.45;;;11.50;99.90;;;;;;5029496;28;20321;-47
2021/09/22 05:09:21;;;;;;;44.95;26.38;;;11.60;99.90;;;;;;5029916;28;20036;-49
2021/09/22 05:11:46;;;;;;;49.45;24.85;;;11.60;99.90;;;;;;5030362;28;20036;-47
2021/09/22 05:14:12;;;;;;;43.85;25.45;;;11.60;99.90;;;;;;5061177;28;20041;-47
2021/09/22 05:16:37;;;;;;;45.10;25.67;;;11.60;99.90;;;;;;5068786;28;20017;-47
2021/09/22 05:19:03;;;;;;;46.38;26.23;;;11.60;99.90;;;;;;5069608;28;20028;-47
2021/09/22 05:21:28;;;;;;;43.90;26.23;;;11.70;99.90;;;;;;5043544;28;20017;-50
2021/09/22 05:23:54;;;;;;;44.42;25.15;;;11.70;99.90;;;;;;5038042;28;20029;-47
2021/09/22 05:26:20;;;;;;;50.35;28.13;;;11.70;99.90;;;;;;5048850;28;20028;-48
2021/09/22 05:28:45;;;;;;;51.38;27.65;;;11.80;99.90;;;;;;5065458;28;20040;-50
2021/09/22 05:31:11;;;;;;;47.05;26.55;;;11.90;99.90;;;;;;5053040;28;20040;-47
2021/09/22 05:33:36;;;;;;;56.95;27.50;;;11.90;99.90;;;;;;5061138;28;20048;-47
2021/09/22 05:36:02;;;;;;;55.50;28.65;;;11.90;99.90;;;;;;5039129;28;20048;-48
2021/09/22 05:38:28;;;;;;;47.22;28.15;;;12.00;99.90;;;;;;5028339;28;20045;-47
2021/09/22 05:40:53;;;;;;;48.88;27.42;;;12.00;99.90;;;;;;5044794;28;20029;-48
2021/09/22 05:43:19;;;;;;;63.95;30.27;;;12.10;99.90;;;;;;5054387;28;20093;-48
2021/09/22 05:45:44;;;;;;;60.55;29.45;;;12.10;99.90;;;;;;5050507;28;20029;-47
2021/09/22 05:48:10;;;;;;;63.03;29.77;;;12.10;99.90;;;;;;5032581;28;20035;-47
2021/09/22 05:50:35;;;;;;;64.40;30.48;;;12.10;99.90;;;;;;5036099;28;20055;-49
2021/09/22 05:53:01;;;;;;;50.17;26.70;;;12.10;99.90;;;;;;5040782;28;20033;-50
2021/09/22 05:55:26;;;;;;;60.80;31.60;;;12.20;99.90;;;;;;5038354;28;20778;-49
2021/09/22 05:57:52;;;;;;;68.60;30.48;;;12.20;99.90;;;;;;5039072;28;20394;-48
2021/09/22 06:00:17;;;;;;;57.22;29.42;;;12.20;99.90;;;;;;5038559;28;20805;-49
2021/09/22 06:02:43;;;;;;;65.35;30.90;;;12.20;99.90;;;;;;5041684;28;20445;-48
2021/09/22 06:05:09;;;;;;;67.70;31.52;;;12.30;99.90;;;;;;5040580;28;20036;-47
2021/09/22 06:07:35;;;;;;;70.00;31.25;;;12.30;99.90;;;;;;5038748;28;20157;-50
2021/09/22 06:10:00;;;;;;;66.38;31.33;;;12.30;99.90;;;;;;5047271;28;20028;-51
2021/09/22 06:12:26;;;;;;;66.68;31.30;;;12.30;99.90;;;;;;5041058;28;20108;-50
2021/09/22 06:14:51;;;;;;;54.65;28.60;;;12.30;99.90;;;;;;5044071;28;20410;-48
2021/09/22 06:17:17;;;;;;;55.45;29.42;;;12.30;99.90;;;;;;5037998;28;20103;-47
2021/09/22 06:19:43;;;;;;;62.03;29.95;;;12.40;99.90;;;;;;5042762;28;20030;-48
2021/09/22 06:22:08;;;;;;;59.88;30.38;;;12.40;99.90;;;;;;5047014;28;20042;-48
2021/09/22 06:24:34;;;;;;;48.17;28.77;;;12.40;99.90;;;;;;5040252;28;20049;-49
2021/09/22 06:27:00;;;;;;;63.58;29.77;;;12.40;99.90;;;;;;5022448;28;20529;-49
2021/09/22 06:29:26;;;;;;;57.35;28.55;;;12.50;99.90;;;;;;5050610;28;20028;-50
2021/09/22 06:31:51;;;;;;;59.28;28.08;;;12.50;99.90;;;;;;5039404;28;20548;-50
2021/09/22 06:34:17;;;;;;;50.58;25.80;;;12.60;99.90;;;;;;5047815;28;20060;-48
2021/09/22 06:36:42;;;;;;;51.75;25.95;;;12.60;99.90;;;;;;5037551;28;20025;-48
2021/09/22 06:39:08;;;;;;;50.20;27.75;;;12.70;99.90;;;;;;5038560;28;20021;-48
2021/09/22 06:41:33;;;;;;;57.08;28.20;;;12.70;99.90;;;;;;5038063;28;20116;-49
2021/09/22 06:44:00;;;;;;;47.80;24.42;;;12.80;99.90;;;;;;5043578;28;20394;-50
2021/09/22 06:46:26;;;;;;;45.92;26.70;;;12.90;99.90;;;;;;5037031;28;20116;-48
2021/09/22 06:48:52;;;;;;;43.33;24.85;;;13.00;99.90;;;;;;5036469;28;20101;-48
2021/09/22 06:51:18;;;;;;;52.35;27.10;;;13.10;99.90;;;;;;5038536;28;20479;-50
2021/09/22 06:53:46;;;;;;;49.55;26.10;;;13.20;99.90;;;;;;5038213;28;20025;-48
2021/09/22 06:56:12;;;;;;;54.03;25.90;;;13.20;99.90;;;;;;5037462;28;20502;-48
2021/09/22 06:58:38;;;;;;;51.33;25.13;;;13.20;99.90;;;;;;5036280;28;20042;-50
2021/09/22 07:01:03;;;;;;;41.55;23.35;;;13.30;99.90;;;;;;5038927;28;20198;-48
2021/09/22 07:03:29;;;;;;;49.28;25.35;;;13.30;99.90;;;;;;5046056;28;20432;-48
2021/09/22 07:05:54;;;;;;;49.80;24.05;;;13.40;99.90;;;;;;5044834;28;20196;-48
2021/09/22 07:08:20;;;;;;;42.05;22.63;;;13.40;99.90;;;;;;5041651;28;20071;-49
2021/09/22 07:10:46;;;;;;;47.55;25.17;;;13.40;99.90;;;;;;5042050;28;20052;-48
2021/09/22 07:13:11;;;;;;;46.45;23.55;;;13.50;99.90;;;;;;5042227;28;20049;-49
2021/09/22 07:15:37;;;;;;;43.35;22.60;;;13.60;99.90;;;;;;5041244;28;20055;-50
2021/09/22 07:18:03;;;;;;;40.05;22.80;;;13.70;99.90;;;;;;5040742;28;20033;-47
2021/09/22 07:20:29;;;;;;;39.40;21.38;;;13.70;99.90;;;;;;5040331;28;21177;-48
2021/09/22 07:22:55;;;;;;;42.58;20.67;;;13.80;99.90;;;;;;5041422;28;20052;-48
2021/09/22 07:25:21;;;;;;;32.28;20.38;;;13.70;99.90;;;;;;5042765;28;20145;-48
2021/09/22 07:27:46;;;;;;;39.05;21.48;;;13.80;99.90;;;;;;5046552;28;20033;-48
2021/09/22 07:30:15;;;;;;;42.88;21.98;;;13.80;99.90;;;;;;5040385;28;20022;-48
2021/09/22 07:32:45;;;;;;;40.20;20.88;;;13.90;99.90;;;;;;5043342;28;20459;-48
2021/09/22 07:35:12;;;;;;;40.63;19.90;;;13.90;99.90;;;;;;5042728;28;20036;-49
2021/09/22 07:37:38;;;;;;;37.78;19.92;;;14.00;99.90;;;;;;5039909;28;20182;-48
2021/09/22 07:40:06;;;;;;;32.13;19.45;;;14.10;99.90;;;;;;5041961;28;20028;-50
2021/09/22 07:42:31;;;;;;;39.40;21.05;;;14.20;99.90;;;;;;5062659;28;20056;-48
2021/09/22 07:44:57;;;;;;;43.30;20.92;;;14.20;99.90;;;;;;5058815;28;20115;-47
2021/09/22 07:47:23;;;;;;;42.25;19.58;;;14.30;99.90;;;;;;5033168;28;20182;-49
2021/09/22 07:49:49;;;;;;;32.17;17.42;;;14.60;99.90;;;;;;5032858;28;20446;-49
2021/09/22 07:52:15;;;;;;;41.92;20.17;;;14.60;99.90;;;;;;5033161;28;20400;-48
2021/09/22 07:54:42;;;;;;;37.45;18.40;;;14.60;99.90;;;;;;5043350;28;20025;-50
2021/09/22 07:57:10;;;;;;;34.30;18.33;;;14.60;99.90;;;;;;5033221;28;20048;-50
2021/09/22 07:59:36;;;;;;;42.33;19.52;;;14.60;99.90;;;;;;5032990;28;20022;-48
2021/09/22 08:02:02;;;;;;;36.75;18.15;;;14.70;99.90;;;;;;5032927;28;20017;-50
2021/09/22 08:04:27;;;;;;;31.30;18.08;;;14.80;99.90;;;;;;5049659;28;20032;-50
2021/09/22 08:06:54;;;;;;;38.17;17.92;;;15.00;99.90;;;;;;5050393;28;20597;-50
2021/09/22 08:09:19;;;;;;;48.10;25.92;;;15.00;99.90;;;;;;5052497;28;20032;-49
2021/09/22 08:11:45;;;;;;;40.65;18.75;;;15.10;99.90;;;;;;5052159;28;20032;-51
2021/09/22 08:14:10;;;;;;;34.63;16.23;;;15.30;99.90;;;;;;5051917;28;20401;-47
2021/09/22 08:16:36;;;;;;;34.00;16.60;;;15.60;99.90;;;;;;5065421;28;20043;-49
2021/09/22 08:19:02;;;;;;;34.47;17.17;;;15.70;99.90;;;;;;5054553;28;20032;-48
2021/09/22 08:21:27;;;;;;;33.95;15.95;;;16.10;99.90;;;;;;5031449;28;20022;-50
2021/09/22 08:23:53;;;;;;;28.30;15.50;;;16.20;99.90;;;;;;5032894;28;20100;-51
2021/09/22 08:26:18;;;;;;;29.23;15.63;;;16.30;99.90;;;;;;5039955;28;20064;-50
2021/09/22 08:28:44;;;;;;;26.13;14.50;;;16.30;99.90;;;;;;5051764;28;20029;-49
2021/09/22 08:31:09;;;;;;;29.63;15.13;;;16.50;99.90;;;;;;5057630;28;20036;-48
2021/09/22 08:33:35;;;;;;;30.35;13.27;;;17.20;99.90;;;;;;5058028;28;20107;-50
2021/09/22 08:36:01;;;;;;;22.15;12.82;;;17.70;99.90;;;;;;5049894;28;20512;-48
2021/09/22 08:38:26;;;;;;;22.45;11.90;;;18.60;99.90;;;;;;5051597;28;20055;-50
2021/09/22 08:40:52;;;;;;;18.17;10.80;;;19.60;99.90;;;;;;5048786;28;20391;-51
2021/09/22 08:43:22;;;;;;;24.80;11.90;;;20.60;99.90;;;;;;5056300;28;20020;-50
2021/09/22 08:45:48;;;;;;;22.48;9.88;;;21.70;99.90;;;;;;5058718;28;20014;-51
2021/09/22 08:48:13;;;;;;;23.27;11.32;;;21.90;99.90;;;;;;5039556;28;20432;-51
2021/09/22 08:50:39;;;;;;;20.70;11.55;;;22.20;99.80;;;;;;5050713;28;20052;-51
2021/09/22 08:53:05;;;;;;;24.25;11.23;;;22.10;98.80;;;;;;5042655;28;20025;-50
2021/09/22 08:55:30;;;;;;;23.13;11.82;;;22.10;99.40;;;;;;5028229;28;20167;-48
2021/09/22 08:57:56;;;;;;;26.83;11.63;;;21.40;99.30;;;;;;5031651;28;20048;-49
2021/09/22 09:00:21;;;;;;;20.05;10.23;;;21.50;99.90;;;;;;5049454;28;20182;-51
2021/09/22 09:02:48;;;;;;;23.85;11.02;;;21.60;99.90;;;;;;5059525;28;20312;-50
2021/09/22 09:05:17;;;;;;;17.00;8.93;;;22.10;98.90;;;;;;5061836;28;20024;-51
2021/09/22 09:08:02;;;;;;;20.35;8.80;;;22.70;98.20;;;;;;5035521;28;20024;-51
2021/09/22 09:10:30;;;;;;;17.15;9.15;;;23.30;96.90;;;;;;5040380;28;20403;-51
2021/09/22 09:13:10;;;;;;;20.10;9.40;;;23.40;96.20;;;;;;5036286;28;20021;-51
2021/09/22 09:15:39;;;;;;;17.48;7.97;;;23.60;95.10;;;;;;5043096;28;20033;-50
2021/09/22 09:18:21;;;;;;;18.60;7.78;;;23.40;94.80;;;;;;5037281;28;20032;-50
2021/09/22 09:20:50;;;;;;;21.00;9.02;;;22.90;95.20;;;;;;5043611;28;20040;-50
2021/09/22 09:23:19;;;;;;;23.15;9.25;;;21.70;96.70;;;;;;5049189;28;20028;-50
2021/09/22 09:25:56;;;;;;;18.73;8.90;;;20.40;98.70;;;;;;5037719;28;20053;-49
2021/09/22 09:28:28;;;;;;;21.23;9.00;;;20.00;99.90;;;;;;5050131;28;20347;-50
2021/09/22 09:30:56;;;;;;;23.15;9.38;;;19.50;99.90;;;;;;5067068;28;20043;-48
2021/09/22 09:33:55;;;;;;;22.95;8.88;;;19.70;99.90;;;;;;5056166;28;20025;-49
2021/09/22 09:36:48;;;;;;;20.08;8.32;;;19.90;99.90;;;;;;5043717;28;20736;-50
2021/09/22 09:39:25;;;;;;;23.27;8.18;;;20.70;99.90;;;;;;5050233;28;20103;-50
2021/09/22 09:41:53;;;;;;;17.60;7.53;;;21.90;99.90;;;;;;5051825;28;20021;-51
2021/09/22 09:44:24;;;;;;;12.70;6.47;;;23.00;98.80;;;;;;5055720;28;20490;-51
2021/09/22 09:46:55;;;;;;;15.30;7.18;;;23.90;96.90;;;;;;5043778;28;20563;-51
2021/09/22 09:49:23;;;;;;;15.90;7.15;;;24.80;93.50;;;;;;5030893;28;20057;-51
2021/09/22 09:51:51;;;;;;;17.95;6.97;;;25.50;93.40;;;;;;5040377;28;20108;-51
2021/09/22 09:54:23;;;;;;;12.82;6.57;;;25.40;92.30;;;;;;5043881;28;20083;-50
2021/09/22 09:56:51;;;;;;;17.27;7.60;;;25.40;92.40;;;;;;5041213;28;20434;-51
2021/09/22 09:59:18;;;;;;;16.23;6.95;;;24.70;91.40;;;;;;5039854;28;20021;-51
2021/09/22 10:01:46;;;;;;;21.88;7.85;;;23.60;92.50;;;;;;5038885;28;20025;-50
2021/09/22 10:04:14;;;;;;;16.60;6.88;;;22.50;93.90;;;;;;5047926;28;20081;-48
2021/09/22 10:06:40;;;;;;;19.80;7.00;;;21.90;96.20;;;;;;5057148;28;20056;-48
2021/09/22 10:09:06;;;;;;;13.20;6.97;;;21.50;96.70;;;;;;5030012;28;20068;-48
2021/09/22 10:11:34;;;;;;;17.85;7.15;;;21.20;97.50;;;;;;5028748;28;20369;-50
2021/09/22 10:14:00;;;;;;;18.23;7.03;;;21.90;97.10;;;;;;5041004;28;20029;-51
2021/09/22 10:16:27;;;;;;;14.38;5.82;;;22.60;96.20;;;;;;5042192;28;20086;-51
2021/09/22 10:18:54;;;;;;;10.90;6.20;;;22.60;95.50;;;;;;5029172;28;20072;-48
2021/09/22 10:21:20;;;;;;;13.45;6.07;;;22.30;95.50;;;;;;5058927;28;20020;-50
2021/09/22 10:23:49;;;;;;;12.52;6.68;;;21.90;95.20;;;;;;5068760;28;20406;-49
2021/09/22 10:26:15;;;;;;;17.63;6.68;;;21.40;96.00;;;;;;5069128;28;20024;-50
2021/09/22 10:28:43;;;;;;;10.20;5.35;;;20.60;98.20;;;;;;5067631;28;20029;-48
2021/09/22 10:31:20;;;;;;;7.10;4.70;;;20.40;98.20;;;;;;5059963;28;20029;-49
2021/09/22 10:33:46;;;;;;;12.73;6.07;;;20.30;97.10;;;;;;5038771;28;20115;-50
2021/09/22 10:36:15;;;;;;;15.48;5.50;;;20.00;98.80;;;;;;5033429;28;20372;-48
2021/09/22 10:38:43;;;;;;;9.13;4.30;;;19.60;99.70;;;;;;5027648;28;20029;-48
2021/09/22 10:41:10;;;;;;;15.80;4.93;;;19.50;99.90;;;;;;5027921;28;20064;-48
2021/09/22 10:43:43;;;;;;;15.63;4.88;;;19.40;99.90;;;;;;5043360;28;20024;-51
2021/09/22 10:46:15;;;;;;;11.35;4.60;;;19.60;99.90;;;;;;5050940;28;20028;-50
2021/09/22 10:49:01;;;;;;;12.57;4.32;;;19.90;99.00;;;;;;5052733;28;20432;-51
2021/09/22 10:51:31;;;;;;;10.07;4.15;;;20.30;99.80;;;;;;5048321;28;20029;-48
2021/09/22 10:54:08;;;;;;;9.00;2.90;;;21.70;98.90;;;;;;5047009;28;20444;-50
2021/09/22 10:56:45;;;;;;;8.50;3.38;;;23.30;95.00;;;;;;5035005;28;20029;-51
2021/09/22 10:59:34;;;;;;;6.20;3.42;;;23.60;93.30;;;;;;5038437;28;20024;-50
2021/09/22 11:02:01;;;;;;;8.77;3.20;;;23.50;92.50;;;;;;5060097;28;20024;-51
2021/09/22 11:04:46;;;;;;;9.30;2.92;;;22.90;92.00;;;;;;5049635;28;20096;-50
2021/09/22 11:07:12;;;;;;;10.80;3.42;;;22.60;92.70;;;;;;5047400;28;20025;-51
2021/09/22 11:09:37;;;;;;;7.18;2.75;;;22.20;92.70;;;;;;5042598;28;20390;-50
2021/09/22 11:12:04;;;;;;;8.82;2.58;;;21.90;93.90;;;;;;5058913;28;20028;-50
2021/09/22 11:14:48;;;;;;;7.97;3.17;;;22.00;93.60;;;;;;5052591;28;20025;-51
2021/09/22 11:17:23;;;;;;;6.82;2.17;;;22.00;93.50;;;;;;5049226;28;20059;-51
2021/09/22 11:19:53;;;;;;;10.82;3.42;;;21.90;93.50;;;;;;5042347;28;20021;-51
2021/09/22 11:22:22;;;;;;;11.85;3.35;;;21.60;93.70;;;;;;5045157;28;20029;-50
2021/09/22 11:24:49;;;;;;;9.15;3.38;;;21.10;94.50;;;;;;5037025;28;20478;-49
2021/09/22 11:27:18;;;;;;;6.55;2.85;;;21.00;95.80;;;;;;5040978;28;20060;-51
2021/09/22 11:29:58;;;;;;;7.13;2.95;;;22.10;95.90;;;;;;5040259;28;20116;-49
2021/09/22 11:32:39;;;;;;;5.57;2.67;;;22.80;92.20;;;;;;5045611;28;20025;-47
2021/09/22 11:35:22;;;;;;;;;;;22.90;92.10;;;;;;5045067;28;20113;-51
2021/09/22 11:37:56;;;;;;;8.00;2.92;;;22.60;92.50;;;;;;5037099;28;19949;-51
2021/09/22 11:40:24;;;;;;;7.35;2.85;;;22.80;93.50;;;;;;5029856;28;20028;-50
2021/09/22 11:43:07;;;;;;;7.53;2.40;;;22.70;91.60;;;;;;5031415;28;20029;-51
2021/09/22 11:45:38;;;;;;;7.18;2.63;;;23.00;92.40;;;;;;5057704;28;20166;-49
2021/09/22 11:48:07;;;;;;;8.18;2.35;;;23.70;90.50;;;;;;5070105;28;20056;-50
2021/09/22 11:50:39;;;;;;;4.18;2.00;;;24.70;89.10;;;;;;5073249;28;20148;-51
2021/09/22 11:53:13;;;;;;;4.35;2.20;;;25.70;84.30;;;;;;5050654;28;20024;-52
2021/09/22 11:55:39;;;;;;;5.28;2.40;;;25.80;83.50;;;;;;5051015;28;20021;-51
2021/09/22 11:58:13;;;;;;;7.80;2.35;;;25.10;81.30;;;;;;5052347;28;20383;-51
2021/09/22 12:00:41;;;;;;;10.02;2.60;;;25.50;81.00;;;;;;5042223;28;20025;-51
2021/09/22 12:03:13;;;;;;;5.95;2.40;;;25.10;81.50;;;;;;5049720;28;20186;-51
2021/09/22 12:05:40;;;;;;;5.13;2.22;;;24.70;82.10;;;;;;5056304;28;20486;-51
2021/09/22 12:08:06;;;;;;;6.53;2.58;;;23.70;84.20;;;;;;5055919;28;20033;-50
2021/09/22 12:10:33;;;;;;;6.10;2.55;;;23.40;85.30;;;;;;5061220;28;20039;-50
2021/09/22 12:13:00;;;;;;;5.35;2.45;;;23.80;84.00;;;;;;5059695;28;20057;-51
2021/09/22 12:15:26;;;;;;;7.82;2.22;;;23.90;85.50;;;;;;5053387;28;20028;-49
2021/09/22 12:17:52;;;;;;;5.05;2.20;;;23.30;86.50;;;;;;5030581;28;20039;-50
2021/09/22 12:20:18;;;;;;;4.32;2.30;;;22.80;88.90;;;;;;5030680;28;20570;-51
2021/09/22 12:22:59;;;;;;;8.77;2.40;;;23.00;88.30;;;;;;5029984;28;20044;-51
2021/09/22 12:25:26;;;;;;;4.13;1.88;;;23.40;88.70;;;;;;5044396;28;20039;-51
2021/09/22 12:27:51;;;;;;;4.10;2.25;;;23.70;85.30;;;;;;5031570;28;20116;-51
2021/09/22 12:30:27;;;;;;;6.70;2.05;;;23.60;85.30;;;;;;5030509;28;20156;-49
2021/09/22 12:32:55;;;;;;;7.18;2.65;;;23.40;87.30;;;;;;5043896;28;20403;-51
2021/09/22 12:35:22;;;;;;;7.07;2.10;;;22.90;87.50;;;;;;5044988;28;20483;-51